createdAt,value
2022-08-10T00:01:52.492Z,20.63
2022-08-10T00:04:23.829Z,19.72
2022-08-10T00:06:52.628Z,20.07
2022-08-10T00:09:19.193Z,20.86
2022-08-10T00:11:45.674Z,21.22
2022-08-10T00:14:12.140Z,20.02
2022-08-10T00:16:38.656Z,20.15
2022-08-10T00:19:05.133Z,19.59
2022-08-10T00:21:31.590Z,20.02
2022-08-10T00:23:58.037Z,20.29
2022-08-10T00:26:24.516Z,21.00
2022-08-10T00:28:51.103Z,20.22
2022-08-10T00:31:17.617Z,20.86
2022-08-10T00:33:44.102Z,20.69
2022-08-10T00:36:10.618Z,19.78
2022-08-10T00:38:37.650Z,19.84
2022-08-10T00:41:04.465Z,19.58
2022-08-10T00:43:30.995Z,20.10
2022-08-10T00:45:59.809Z,20.18
2022-08-10T00:48:30.671Z,20.52
2022-08-10T00:51:00.916Z,20.79
2022-08-10T00:53:28.394Z,21.06
2022-08-10T00:57:12.691Z,20.91
2022-08-10T00:58:43.176Z,19.53
2022-08-10T01:01:23.550Z,19.17
2022-08-10T01:04:36.284Z,20.04
2022-08-10T01:07:11.309Z,19.18
2022-08-10T01:09:37.690Z,19.46
2022-08-10T01:12:38.792Z,19.37
2022-08-10T01:15:16.475Z,19.40
2022-08-10T01:17:50.402Z,20.04
2022-08-10T01:20:30.686Z,19.88
2022-08-10T01:23:24.964Z,19.58
2022-08-10T01:26:31.440Z,19.18
2022-08-10T01:29:36.314Z,19.84
2022-08-10T01:32:07.298Z,19.33
2022-08-10T01:34:52.219Z,18.88
2022-08-10T01:37:24.671Z,18.90
2022-08-10T01:39:57.428Z,18.76
2022-08-10T01:42:25.613Z,18.63
2022-08-10T01:44:56.238Z,18.92
2022-08-10T01:47:52.108Z,19.22
2022-08-10T01:50:24.405Z,19.50
2022-08-10T01:52:56.031Z,19.37
2022-08-10T01:55:24.954Z,19.70
2022-08-10T01:57:53.615Z,18.67
2022-08-10T02:00:20.494Z,18.51
2022-08-10T02:02:47.919Z,18.90
2022-08-10T02:05:15.925Z,18.97
2022-08-10T02:07:44.009Z,19.69
2022-08-10T02:10:13.117Z,20.19
2022-08-10T02:12:43.026Z,19.77
2022-08-10T02:15:14.664Z,20.42
2022-08-10T02:17:57.987Z,20.43
2022-08-10T02:20:36.620Z,20.39
2022-08-10T02:23:09.031Z,20.47
2022-08-10T02:25:41.260Z,20.42
2022-08-10T02:28:10.859Z,20.44
2022-08-10T02:30:38.162Z,20.38
2022-08-10T02:33:06.617Z,20.27
2022-08-10T02:35:54.603Z,19.56
2022-08-10T02:38:59.392Z,19.79
2022-08-10T02:45:15.845Z,20.23
2022-08-10T02:45:27.814Z,19.82
2022-08-10T02:47:55.289Z,20.07
2022-08-10T02:50:38.153Z,20.11
2022-08-10T02:53:49.607Z,20.14
2022-08-10T02:56:09.807Z,19.80
2022-08-10T02:58:45.135Z,20.03
2022-08-10T03:01:16.144Z,20.02
2022-08-10T03:03:52.179Z,19.00
2022-08-10T03:06:25.514Z,18.65
2022-08-10T03:08:54.078Z,18.27
2022-08-10T03:12:35.035Z,18.60
2022-08-10T03:14:12.072Z,18.22
2022-08-10T03:16:39.817Z,18.58
2022-08-10T03:20:33.956Z,17.99
2022-08-10T03:21:55.712Z,18.02
2022-08-10T03:24:30.392Z,18.00
2022-08-10T03:27:00.374Z,17.90
2022-08-10T03:29:29.007Z,18.09
2022-08-10T03:31:56.935Z,17.71
2022-08-10T03:34:33.410Z,17.90
2022-08-10T03:37:00.668Z,17.92
2022-08-10T03:39:27.633Z,17.72
2022-08-10T03:41:58.767Z,17.49
2022-08-10T03:44:29.804Z,17.48
2022-08-10T03:46:59.810Z,18.20
2022-08-10T03:49:28.386Z,19.06
2022-08-10T03:51:55.646Z,19.19
2022-08-10T03:54:24.337Z,18.48
2022-08-10T03:56:51.403Z,18.19
2022-08-10T03:59:18.072Z,18.24
2022-08-10T04:02:45.056Z,18.04
2022-08-10T04:04:33.514Z,18.26
2022-08-10T04:07:01.165Z,18.18
2022-08-10T04:09:53.504Z,18.20
2022-08-10T04:12:20.869Z,17.83
2022-08-10T04:14:50.886Z,18.20
2022-08-10T04:18:02.602Z,18.20
2022-08-10T04:20:20.801Z,19.09
2022-08-10T04:22:52.001Z,18.83
2022-08-10T04:25:20.121Z,18.67
2022-08-10T04:27:47.167Z,18.02
2022-08-10T04:30:14.316Z,17.57
2022-08-10T04:32:42.208Z,17.55
2022-08-10T04:35:10.980Z,17.87
2022-08-10T04:37:46.843Z,18.23
2022-08-10T04:40:25.237Z,18.09
2022-08-10T04:43:02.345Z,19.11
2022-08-10T04:45:50.566Z,18.54
2022-08-10T04:48:40.490Z,17.83
2022-08-10T04:51:02.497Z,18.39
2022-08-10T04:53:30.887Z,18.71
2022-08-10T04:55:57.363Z,18.12
2022-08-10T04:58:23.959Z,17.87
2022-08-10T05:00:50.513Z,18.13
2022-08-10T05:03:17.005Z,17.76
2022-08-10T05:05:43.596Z,18.14
2022-08-10T05:08:10.219Z,17.51
2022-08-10T05:13:25.470Z,18.53
2022-08-10T05:15:53.538Z,18.96
2022-08-10T05:18:20.305Z,19.11
2022-08-10T05:20:50.115Z,18.76
2022-08-10T05:23:16.824Z,18.38
2022-08-10T05:25:43.336Z,18.35
2022-08-10T05:28:09.914Z,19.20
2022-08-10T05:30:36.627Z,19.14
2022-08-10T05:33:08.138Z,18.69
2022-08-10T05:35:57.568Z,18.20
2022-08-10T05:38:23.375Z,18.79
2022-08-10T05:40:50.212Z,19.26
2022-08-10T05:43:18.434Z,18.66
2022-08-10T05:46:17.522Z,20.05
2022-08-10T05:48:41.733Z,18.90
2022-08-10T05:51:20.554Z,19.83
2022-08-10T05:54:02.480Z,20.06
2022-08-10T05:56:55.787Z,19.63
2022-08-10T06:00:33.083Z,19.10
2022-08-10T06:02:31.393Z,19.35
2022-08-10T06:04:58.635Z,20.79
2022-08-10T06:07:27.417Z,19.57
2022-08-10T06:09:58.656Z,20.02
2022-08-10T06:12:30.221Z,20.19
2022-08-10T06:15:05.828Z,20.90
2022-08-10T06:17:38.392Z,21.69
2022-08-10T06:20:05.945Z,21.14
2022-08-10T06:22:33.142Z,22.34
2022-08-10T06:25:37.690Z,23.05
2022-08-10T06:27:54.859Z,23.35
2022-08-10T06:30:23.273Z,21.80
2022-08-10T06:32:51.371Z,23.07
2022-08-10T06:35:19.245Z,23.15
2022-08-10T06:37:50.712Z,24.40
2022-08-10T06:40:19.103Z,23.41
2022-08-10T06:42:49.997Z,23.62
2022-08-10T06:45:29.393Z,24.63
2022-08-10T06:48:02.342Z,23.18
2022-08-10T06:50:59.206Z,24.87
2022-08-10T06:53:53.961Z,25.16
2022-08-10T06:56:20.611Z,23.76
2022-08-10T06:59:21.364Z,23.88
2022-08-10T07:01:57.380Z,24.95
2022-08-10T07:04:33.757Z,24.22
2022-08-10T07:07:06.377Z,24.58
2022-08-10T07:09:36.376Z,23.83
2022-08-10T07:12:07.660Z,23.96
2022-08-10T07:14:42.542Z,24.77
2022-08-10T07:17:19.423Z,25.70
2022-08-10T07:19:49.633Z,26.19
2022-08-10T07:23:50.721Z,26.07
2022-08-10T07:25:08.152Z,26.63
2022-08-10T07:27:40.705Z,24.13
2022-08-10T07:30:22.412Z,24.92
2022-08-10T07:32:52.629Z,25.43
2022-08-10T07:35:22.111Z,26.42
2022-08-10T07:37:51.637Z,25.86
2022-08-10T07:40:20.393Z,25.22
2022-08-10T07:42:50.901Z,26.84
2022-08-10T07:45:17.558Z,27.42
2022-08-10T07:47:55.718Z,28.04
2022-08-10T07:50:24.795Z,28.28
2022-08-10T07:52:53.469Z,26.98
2022-08-10T07:56:03.964Z,26.97
2022-08-10T07:58:09.028Z,28.27
2022-08-10T08:00:37.147Z,27.54
2022-08-10T08:03:07.153Z,28.27
2022-08-10T08:05:58.734Z,28.25
2022-08-10T08:08:22.984Z,27.44
2022-08-10T08:10:50.974Z,27.86
2022-08-10T08:13:20.428Z,28.62
2022-08-10T08:16:18.860Z,28.86
2022-08-10T08:18:37.072Z,29.36
2022-08-10T08:21:07.620Z,28.37
2022-08-10T08:24:11.224Z,28.33
2022-08-10T08:26:38.974Z,28.67
2022-08-10T08:29:06.020Z,28.89
2022-08-10T08:31:32.867Z,27.55
2022-08-10T08:34:01.042Z,28.16
2022-08-10T08:36:28.378Z,27.91
2022-08-10T08:38:55.475Z,28.17
2022-08-10T08:41:27.978Z,27.81
2022-08-10T08:44:14.263Z,28.15
2022-08-10T08:46:59.687Z,28.64
2022-08-10T08:50:04.532Z,28.84
2022-08-10T08:52:18.705Z,28.76
2022-08-10T08:56:03.748Z,28.71
2022-08-10T08:58:03.360Z,28.00
2022-08-10T09:00:51.094Z,27.99
2022-08-10T09:03:29.801Z,28.73
2022-08-10T09:06:15.226Z,28.19
2022-08-10T09:09:19.369Z,27.90
2022-08-10T09:12:22.596Z,28.36
2022-08-10T09:14:56.754Z,28.59
2022-08-10T09:17:42.172Z,29.26
2022-08-10T09:20:13.815Z,26.42
2022-08-10T09:22:58.736Z,26.06
2022-08-10T09:25:34.132Z,28.20
2022-08-10T09:28:00.550Z,28.96
2022-08-10T09:30:35.707Z,28.57
2022-08-10T09:36:24.759Z,28.43
2022-08-10T09:36:32.486Z,29.00
2022-08-10T09:39:07.741Z,28.70
2022-08-10T09:41:58.179Z,28.64
2022-08-10T09:44:57.663Z,28.88
2022-08-10T09:48:02.068Z,27.38
2022-08-10T09:54:04.629Z,27.26
2022-08-10T09:57:24.381Z,28.56
2022-08-10T10:00:02.825Z,27.10
2022-08-10T10:02:39.412Z,28.26
2022-08-10T10:05:52.224Z,27.77
2022-08-10T10:08:21.921Z,27.63
2022-08-10T10:11:00.143Z,28.88
2022-08-10T10:14:01.767Z,29.52
2022-08-10T10:16:52.215Z,28.09
2022-08-10T10:19:30.150Z,28.40
2022-08-10T10:22:26.231Z,29.81
2022-08-10T10:25:01.952Z,27.48
2022-08-10T10:28:44.395Z,29.34
2022-08-10T10:31:24.597Z,28.26
2022-08-10T10:33:59.942Z,28.57
2022-08-10T10:36:28.174Z,28.91
2022-08-10T10:38:58.023Z,28.63
2022-08-10T10:42:03.528Z,28.38
2022-08-10T10:45:01.094Z,27.76
2022-08-10T10:47:46.203Z,29.58
2022-08-10T10:50:19.542Z,27.60
2022-08-10T10:52:51.864Z,28.43
2022-08-10T10:56:14.450Z,27.95
2022-08-10T10:58:51.982Z,29.46
2022-08-10T11:01:21.748Z,29.27
2022-08-10T11:04:09.056Z,29.74
2022-08-10T11:07:14.606Z,30.31
2022-08-10T11:10:05.210Z,28.66
2022-08-10T11:12:50.901Z,29.62
2022-08-10T11:15:26.613Z,28.10
2022-08-10T11:18:01.309Z,28.06
2022-08-10T11:20:40.300Z,28.81
2022-08-10T11:23:28.747Z,29.46
2022-08-10T11:26:03.258Z,29.09
2022-08-10T11:28:36.983Z,29.85
2022-08-10T11:31:15.799Z,28.17
2022-08-10T11:37:10.245Z,29.52
2022-08-10T11:39:52.887Z,29.59
2022-08-10T11:42:35.841Z,28.95
2022-08-10T11:45:13.165Z,28.91
2022-08-10T11:47:53.684Z,29.86
2022-08-10T11:50:22.664Z,29.94
2022-08-10T11:52:53.547Z,28.91
2022-08-10T11:55:23.435Z,29.12
2022-08-10T11:57:55.810Z,28.40
2022-08-10T12:00:24.276Z,29.47
2022-08-10T12:02:56.501Z,29.09
2022-08-10T12:05:46.447Z,30.49
2022-08-10T12:10:07.220Z,29.32
2022-08-10T12:11:06.454Z,29.23
2022-08-10T12:14:10.765Z,29.47
2022-08-10T12:16:40.022Z,29.33
2022-08-10T12:19:11.197Z,29.55
2022-08-10T12:21:49.686Z,29.76
2022-08-10T12:24:20.139Z,28.92
2022-08-10T12:27:01.522Z,29.46
2022-08-10T12:29:32.121Z,29.91
2022-08-10T12:32:11.139Z,29.77
2022-08-10T12:34:50.919Z,29.55
2022-08-10T12:37:21.373Z,27.78
2022-08-10T12:40:31.434Z,29.16
2022-08-10T12:43:13.026Z,29.38
2022-08-10T12:46:03.069Z,29.63
2022-08-10T12:49:19.843Z,27.99
2022-08-10T12:51:53.354Z,28.78
2022-08-10T12:54:32.605Z,28.86
2022-08-10T12:57:11.379Z,30.05
2022-08-10T12:59:43.787Z,29.72
2022-08-10T13:02:19.992Z,29.84
2022-08-10T13:04:51.254Z,28.50
2022-08-10T13:08:25.327Z,29.07
2022-08-10T13:10:15.394Z,29.76
2022-08-10T13:12:48.854Z,29.95
2022-08-10T13:15:31.034Z,30.48
2022-08-10T13:18:05.932Z,29.49
2022-08-10T13:20:45.530Z,30.07
2022-08-10T13:23:20.755Z,29.66
2022-08-10T13:25:50.394Z,29.68
2022-08-10T13:28:35.706Z,30.53
2022-08-10T13:31:17.043Z,29.93
2022-08-10T13:34:39.776Z,29.92
2022-08-10T13:36:49.328Z,29.97
2022-08-10T13:39:19.648Z,30.21
2022-08-10T13:41:48.035Z,30.08
2022-08-10T13:44:20.337Z,30.48
2022-08-10T13:46:54.691Z,30.28
2022-08-10T13:49:22.084Z,29.55
2022-08-10T13:51:53.917Z,29.61
2022-08-10T13:54:35.998Z,29.23
2022-08-10T13:57:04.650Z,30.33
2022-08-10T14:00:33.731Z,29.65
2022-08-10T14:02:40.654Z,29.56
2022-08-10T14:05:08.625Z,28.89
2022-08-10T14:07:40.469Z,30.05
2022-08-10T14:11:09.939Z,30.22
2022-08-10T14:13:25.272Z,29.71
2022-08-10T14:15:52.858Z,30.82
2022-08-10T14:18:20.966Z,30.33
2022-08-10T14:20:48.774Z,29.44
2022-08-10T14:23:15.765Z,30.47
2022-08-10T14:25:55.857Z,30.08
2022-08-10T14:28:31.103Z,29.97
2022-08-10T14:31:04.533Z,30.49
2022-08-10T14:33:32.941Z,29.72
2022-08-10T14:36:21.465Z,29.11
2022-08-10T14:38:48.879Z,29.43
2022-08-10T14:42:02.581Z,29.45
2022-08-10T14:44:11.616Z,30.32
2022-08-10T14:46:44.486Z,30.63
2022-08-10T14:49:26.534Z,29.42
2022-08-10T14:52:00.150Z,29.60
2022-08-10T14:54:29.551Z,29.25
2022-08-10T14:57:11.289Z,29.87
2022-08-10T15:00:22.482Z,28.94
2022-08-10T15:02:40.937Z,28.98
2022-08-10T15:05:17.289Z,30.59
2022-08-10T15:07:58.955Z,29.67
2022-08-10T15:10:27.890Z,28.89
2022-08-10T15:12:58.651Z,29.22
2022-08-10T15:15:28.779Z,29.89
2022-08-10T15:17:58.363Z,29.46
2022-08-10T15:20:27.796Z,30.61
2022-08-10T15:23:00.009Z,30.32
2022-08-10T15:25:28.597Z,29.23
2022-08-10T15:28:10.597Z,30.16
2022-08-10T15:30:43.795Z,30.81
2022-08-10T15:34:04.507Z,30.62
2022-08-10T15:36:58.805Z,30.78
2022-08-10T15:40:22.438Z,31.47
2022-08-10T15:42:58.452Z,29.61
2022-08-10T15:45:25.344Z,28.91
2022-08-10T15:48:00.509Z,29.15
2022-08-10T15:50:40.077Z,29.75
2022-08-10T15:53:30.688Z,29.70
2022-08-10T15:56:00.664Z,30.41
2022-08-10T15:58:39.193Z,30.19
2022-08-10T16:02:15.117Z,28.66
2022-08-10T16:04:32.313Z,29.90
2022-08-10T16:07:01.074Z,30.18
2022-08-10T16:10:23.483Z,29.53
2022-08-10T16:12:34.373Z,28.71
2022-08-10T16:15:07.955Z,30.40
2022-08-10T16:17:54.766Z,29.81
2022-08-10T16:20:31.169Z,29.22
2022-08-10T16:23:02.766Z,29.45
2022-08-10T16:25:51.546Z,29.87
2022-08-10T16:28:20.084Z,29.94
2022-08-10T16:30:53.103Z,28.94
2022-08-10T16:33:24.084Z,29.03
2022-08-10T16:36:01.497Z,29.38
2022-08-10T16:38:28.780Z,29.23
2022-08-10T16:40:57.157Z,29.77
2022-08-10T16:43:24.616Z,30.56
2022-08-10T16:45:57.639Z,30.48
2022-08-10T16:48:48.896Z,30.30
2022-08-10T16:51:14.252Z,30.65
2022-08-10T16:53:47.554Z,30.11
2022-08-10T16:56:15.778Z,30.32
2022-08-10T16:58:46.175Z,29.60
2022-08-10T17:01:18.330Z,29.71
2022-08-10T17:04:06.700Z,28.64
2022-08-10T17:06:43.819Z,29.18
2022-08-10T17:09:18.338Z,30.32
2022-08-10T17:11:48.054Z,29.66
2022-08-10T17:14:14.961Z,29.62
2022-08-10T17:16:50.882Z,29.53
2022-08-10T17:19:21.108Z,28.80
2022-08-10T17:21:58.221Z,28.66
2022-08-10T17:24:34.634Z,28.73
2022-08-10T17:28:03.887Z,29.31
2022-08-10T17:30:04.257Z,29.25
2022-08-10T17:32:45.655Z,29.65
2022-08-10T17:35:23.424Z,29.50
2022-08-10T17:38:19.429Z,29.34
2022-08-10T17:40:47.902Z,28.72
2022-08-10T17:43:58.404Z,29.27
2022-08-10T17:46:12.039Z,28.55
2022-08-10T17:48:41.311Z,28.47
2022-08-10T17:51:11.038Z,28.39
2022-08-10T17:53:52.160Z,28.58
2022-08-10T17:56:20.687Z,29.58
2022-08-10T17:59:00.522Z,28.93
2022-08-10T18:01:41.263Z,28.21
2022-08-10T18:04:20.903Z,29.56
2022-08-10T18:06:56.154Z,28.58
2022-08-10T18:09:54.899Z,27.80
2022-08-10T18:12:32.486Z,28.47
2022-08-10T18:15:08.530Z,28.38
2022-08-10T18:17:43.331Z,28.04
2022-08-10T18:20:11.485Z,28.06
2022-08-10T18:22:47.433Z,27.65
2022-08-10T18:25:20.879Z,28.10
2022-08-10T18:28:04.153Z,28.26
2022-08-10T18:30:36.517Z,28.05
2022-08-10T18:33:08.499Z,27.61
2022-08-10T18:35:35.810Z,28.20
2022-08-10T18:38:03.872Z,28.01
2022-08-10T18:40:35.465Z,28.16
2022-08-10T18:44:02.854Z,27.61
2022-08-10T18:45:56.862Z,28.09
2022-08-10T18:48:33.214Z,27.65
2022-08-10T18:51:05.628Z,27.77
2022-08-10T18:53:47.936Z,27.55
2022-08-10T18:56:20.574Z,27.35
2022-08-10T18:59:08.491Z,27.41
2022-08-10T19:01:53.477Z,27.32
2022-08-10T19:04:31.001Z,27.72
2022-08-10T19:07:07.946Z,27.07
2022-08-10T19:09:47.411Z,27.38
2022-08-10T19:12:29.940Z,27.20
2022-08-10T19:14:58.156Z,27.12
2022-08-10T19:18:03.221Z,26.60
2022-08-10T19:20:51.258Z,26.85
2022-08-10T19:23:43.899Z,27.11
2022-08-10T19:26:43.394Z,26.42
2022-08-10T19:30:09.332Z,26.93
2022-08-10T19:33:08.951Z,26.47
2022-08-10T19:36:04.267Z,26.34
2022-08-10T19:39:33.080Z,26.70
2022-08-10T19:42:31.118Z,26.64
2022-08-10T19:46:00.980Z,27.18
2022-08-10T19:48:16.322Z,27.65
2022-08-10T19:51:13.423Z,27.31
2022-08-10T19:53:53.197Z,27.47
2022-08-10T19:56:35.613Z,27.32
2022-08-10T19:59:08.186Z,26.85
2022-08-10T20:01:55.080Z,26.85
2022-08-10T20:04:31.951Z,26.70
2022-08-10T20:07:18.962Z,27.24
2022-08-10T20:10:00.366Z,26.23
2022-08-10T20:12:43.002Z,25.38
2022-08-10T20:15:19.963Z,25.28
2022-08-10T20:18:07.740Z,24.83
2022-08-10T20:21:16.403Z,25.43
2022-08-10T20:24:09.137Z,25.31
2022-08-10T20:26:51.401Z,25.37
2022-08-10T20:29:58.405Z,25.30
2022-08-10T20:32:26.458Z,25.26
2022-08-10T20:35:05.719Z,25.34
2022-08-10T20:38:03.806Z,25.99
2022-08-10T20:40:27.843Z,26.50
2022-08-10T20:43:00.238Z,25.76
2022-08-10T20:45:46.433Z,24.85
2022-08-10T20:48:31.125Z,24.74
2022-08-10T20:51:00.496Z,25.48
2022-08-10T20:53:33.776Z,26.35
2022-08-10T20:56:08.561Z,26.35
2022-08-10T20:58:54.988Z,25.66
2022-08-10T21:02:07.175Z,25.21
2022-08-10T21:04:42.196Z,24.71
2022-08-10T21:07:57.882Z,25.53
2022-08-10T21:10:45.887Z,25.61
2022-08-10T21:13:24.642Z,26.20
2022-08-10T21:16:03.240Z,25.81
2022-08-10T21:18:33.743Z,25.56
2022-08-10T21:21:37.660Z,26.03
2022-08-10T21:24:14.790Z,25.74
2022-08-10T21:26:59.328Z,25.55
2022-08-10T21:29:55.914Z,25.77
2022-08-10T21:32:48.772Z,25.01
2022-08-10T21:35:40.387Z,23.96
2022-08-10T21:38:28.249Z,23.54
2022-08-10T21:41:17.700Z,23.63
2022-08-10T21:44:13.951Z,23.72
2022-08-10T21:47:01.759Z,23.90
2022-08-10T21:50:07.063Z,24.98
2022-08-10T21:53:06.259Z,24.37
2022-08-10T21:56:09.595Z,23.93
2022-08-10T21:59:07.116Z,23.85
2022-08-10T22:02:00.112Z,23.51
2022-08-10T22:04:46.346Z,24.00
2022-08-10T22:07:38.687Z,23.44
2022-08-10T22:10:26.958Z,23.40
2022-08-10T22:13:16.771Z,23.41
2022-08-10T22:16:11.912Z,23.11
2022-08-10T22:19:03.692Z,23.11
2022-08-10T22:22:04.416Z,23.19
2022-08-10T22:25:16.700Z,23.13
2022-08-10T22:28:03.242Z,23.08
2022-08-10T22:31:22.852Z,23.04
2022-08-10T22:34:16.015Z,23.28
2022-08-10T22:37:45.827Z,23.86
2022-08-10T22:40:37.983Z,24.40
2022-08-10T22:43:35.877Z,24.29
2022-08-10T22:46:30.703Z,24.75
2022-08-10T22:49:00.371Z,23.99
2022-08-10T22:51:51.833Z,24.17
2022-08-10T22:54:52.196Z,24.63
2022-08-10T22:57:38.112Z,24.72
2022-08-10T23:00:30.587Z,24.56
2022-08-10T23:02:59.351Z,24.24
2022-08-10T23:05:33.077Z,24.57
2022-08-10T23:08:29.534Z,24.47
2022-08-10T23:11:03.235Z,24.49
2022-08-10T23:13:37.654Z,24.40
2022-08-10T23:16:38.467Z,24.13
2022-08-10T23:19:32.483Z,24.31
2022-08-10T23:22:11.435Z,24.20
2022-08-10T23:24:55.121Z,24.12
2022-08-10T23:27:38.425Z,23.83
2022-08-10T23:30:17.563Z,23.75
2022-08-10T23:32:48.800Z,23.59
2022-08-10T23:36:05.634Z,23.07
2022-08-10T23:38:07.946Z,23.29
2022-08-10T23:40:35.473Z,23.45
2022-08-10T23:43:03.726Z,23.60
2022-08-10T23:45:52.222Z,22.97
2022-08-10T23:48:24.929Z,23.39
2022-08-10T23:50:58.330Z,23.15
2022-08-10T23:53:35.287Z,23.12
2022-08-10T23:56:10.305Z,22.68
2022-08-10T23:58:48.029Z,21.71
